Mary Alice II — WDE3827 — position and weather

sailwx.info

Track history (hours):
 
Tides and Currents Weather Stations Pressure Air Temp Water Temp Dewpoint Dewpoint Depression Visibility Wind Speed Wind Dir Waves Ship Positions

Mary Alice II

Owner: Lakeshore Drive Investment, Rollins, MT. More information available from US FCC via Universal Licensing System and Coast Guard Vessel Documentation Center.

Last reported at 2016-Jun-05 16:33 UTC. Time now 2016-Jul-23 15:03 UTC.
Position N 52°15' W 128°18'.
Warning: this ship's position is 47 days out of date.

Length 40 m; draft 2.2 m.

Type: Pleasure craft. MMSI: 367344710.

Date/timePositionNaut miles runAvg speedWind from/ knotsBaromVisibWave heightAir tempDewpointWater temp
2016-Jun-05 16:33N 52°15' W 128°18'10 9.9
2016-Jun-05 15:33N 52°09' W 128°05'0 0.2
2016-Jun-05 14:33N 52°09' W 128°05'0 0.0
2016-Jun-05 13:30N 52°09' W 128°05'0 0.0
2016-Jun-05 12:30N 52°09' W 128°05'0 0.0
2016-Jun-05 11:30N 52°09' W 128°05'0 0.0
2016-Jun-05 10:33N 52°09' W 128°05'0 0.0
2016-Jun-05 09:30N 52°09' W 128°05'0 0.0
2016-Jun-05 08:30N 52°09' W 128°05'0 0.0
2016-Jun-05 07:33N 52°09' W 128°05'0 0.0
2016-Jun-05 06:33N 52°09' W 128°05'0 0.0
2016-Jun-05 05:33N 52°09' W 128°05'0 0.0
2016-Jun-05 04:30N 52°09' W 128°05'0 0.0
2016-Jun-05 03:33N 52°09' W 128°05'0 0.0
2016-Jun-05 02:33N 52°09' W 128°05'0 0.0
2016-Jun-05 01:27N 52°09' W 128°05'1 1.2
2016-Jun-05 00:33N 52°10' W 128°06'10 9.8
2016-Jun-04 23:33N 52°02' W 127°56'3214.6
2016-Jun-04 21:23N 51°31' W 127°51'1910.2
2016-Jun-04 19:33N 51°12' W 127°51'1414.4
2016-Jun-04 18:33N 50°58' W 127°44'1313.0
2016-Jun-04 17:33N 50°50' W 127°28'21 1.1
2016-Jun-03 23:20N 50°36' W 127°05'6513.2
2016-Jun-03 18:26N 50°20' W 125°26'1010.7
2016-Jun-03 17:33N 50°11' W 125°21'9 8.5
2016-Jun-03 16:30N 50°04' W 125°14'0 0.0
2016-Jun-03 15:23N 50°04' W 125°14'0 0.0
2016-Jun-03 14:30N 50°04' W 125°14'0 0.0
2016-Jun-03 13:30N 50°04' W 125°14'0 0.0
2016-Jun-03 12:33N 50°04' W 125°14'0 0.0
2016-Jun-03 11:29N 50°04' W 125°14'0 0.0
2016-Jun-03 10:29N 50°04' W 125°14'0 0.0
2016-Jun-03 09:32N 50°04' W 125°14'0 0.0
2016-Jun-03 08:32N 50°04' W 125°14'0 0.0
2016-Jun-03 07:32N 50°04' W 125°14'0 0.0
2016-Jun-03 06:33N 50°04' W 125°14'0 0.0
2016-Jun-03 05:32N 50°04' W 125°14'0 0.0
2016-Jun-03 04:32N 50°04' W 125°14'0 0.0
2016-Jun-03 03:33N 50°04' W 125°14'0 0.0
2016-Jun-03 02:33N 50°04' W 125°14'0 0.0
2016-Jun-03 01:32N 50°04' W 125°14'0 0.0
2016-Jun-03 00:32N 50°04' W 125°14'0 0.0
2016-Jun-02 23:32N 50°04' W 125°14'0 0.0
2016-Jun-02 22:33N 50°04' W 125°14'2 1.7
2016-Jun-02 21:34N 50°02' W 125°14'1212.1
2016-Jun-02 20:33N 49°53' W 125°02'1414.0
2016-Jun-02 19:33N 49°42' W 124°48'1413.6
2016-Jun-02 18:33N 49°34' W 124°30'1313.0
2016-Jun-02 17:33N 49°24' W 124°18'1313.4
2016-Jun-02 16:33N 49°17' W 124°01'7 3.7
2016-Jun-02 14:32N 49°10' W 123°56'0 0.0
2016-Jun-02 13:23N 49°10' W 123°56'0 0.0
2016-Jun-02 04:32N 49°10' W 123°56'0 0.0
2016-Jun-02 03:32N 49°10' W 123°56'0 0.0
2016-Jun-02 02:32N 49°10' W 123°56'0 0.0
2016-Jun-02 01:32N 49°10' W 123°56'0 0.0
2016-Jun-02 00:32N 49°10' W 123°56'0 0.0
2016-Jun-01 23:26N 49°10' W 123°56'0 0.0
2016-Jun-01 22:29N 49°10' W 123°56'0 0.0
2016-Jun-01 21:33N 49°10' W 123°56'8 8.4
2016-Jun-01 20:34N 49°14' W 123°44'1413.6
2016-Jun-01 19:33N 49°03' W 123°31'1313.2
2016-Jun-01 18:33N 48°56' W 123°14'1312.6
2016-Jun-01 17:33N 48°47' W 123°01'1111.4
2016-Jun-01 16:34N 48°40' W 123°14'5 4.5
2016-Jun-01 15:30N 48°37' W 123°09'0 0.0
2016-Jun-01 14:12N 48°37' W 123°09'0 0.0
2016-Jun-01 13:30N 48°37' W 123°09'0 0.0
2016-Jun-01 12:30N 48°37' W 123°09'0 0.0
2016-Jun-01 11:12N 48°37' W 123°09'0 0.0
2016-Jun-01 06:09N 48°37' W 123°09'0 0.0
2016-Jun-01 05:27N 48°37' W 123°09'0 0.0
2016-Jun-01 04:33N 48°37' W 123°09'0 0.0
2016-Jun-01 03:15N 48°37' W 123°09'0 0.0
2016-Jun-01 02:27N 48°37' W 123°09'0 0.0
2016-Jun-01 01:33N 48°37' W 123°09'0 0.0
2016-May-31 23:33N 48°37' W 123°09'0 0.0
2016-May-31 22:24N 48°37' W 123°09'0 0.0
2016-May-31 20:15N 48°37' W 123°09'0 0.0
2016-May-31 19:30N 48°37' W 123°09'0 0.0
2016-May-31 18:30N 48°37' W 123°09'0 0.0
2016-May-31 17:27N 48°37' W 123°09'0 0.0
2016-May-31 16:30N 48°37' W 123°09'0 0.0
2016-May-31 15:27N 48°37' W 123°09'0 0.0
2016-May-31 14:03N 48°37' W 123°09'0 0.0
2016-May-31 13:30N 48°37' W 123°09'0 0.0
2016-May-31 12:30N 48°37' W 123°09'0 0.0
2016-May-31 11:30N 48°37' W 123°09'0 0.0
2016-May-31 08:21N 48°37' W 123°09'0 0.0
2016-May-31 04:06N 48°37' W 123°09'0 0.0
2016-May-31 02:30N 48°37' W 123°09'0 0.0
2016-May-31 00:06N 48°37' W 123°09'0 0.0
2016-May-30 23:30N 48°37' W 123°09'0 0.0
2016-May-30 22:30N 48°37' W 123°09'0 0.0
2016-May-30 21:12N 48°37' W 123°09'0 0.0
2016-May-30 18:18N 48°37' W 123°09'0 0.0
2016-May-30 17:24N 48°37' W 123°09'0 0.0
2016-May-30 16:18N 48°37' W 123°09'0 0.0
2016-May-30 15:24N 48°37' W 123°09'0 0.0
2016-May-30 14:24N 48°37' W 123°09'0 0.0
2016-May-30 13:18N 48°37' W 123°09'0 0.0
2016-May-30 12:24N 48°37' W 123°09'0 0.0
2016-May-30 11:24N 48°37' W 123°09'0 0.0
2016-May-30 10:12N 48°37' W 123°09'0 0.0
2016-May-30 09:30N 48°37' W 123°09'0 0.0
2016-May-30 04:30N 48°37' W 123°09'0 0.0
2016-May-30 02:30N 48°37' W 123°09'0 0.0
2016-May-29 17:30N 48°37' W 123°09'0 0.0
2016-May-29 16:12N 48°37' W 123°09'0 0.0
2016-May-29 15:24N 48°37' W 123°09'0 0.0
2016-May-29 11:25N 48°37' W 123°09'0 0.0
2016-May-29 03:12N 48°37' W 123°09'0 0.0
2016-May-29 02:30N 48°37' W 123°09'0 0.0
2016-May-29 01:24N 48°37' W 123°09'0 0.0
2016-May-29 00:30N 48°37' W 123°09'0 0.0
2016-May-28 23:30N 48°37' W 123°09'0 0.0
2016-May-28 22:24N 48°37' W 123°09'0 0.0
2016-May-28 21:30N 48°37' W 123°09'0 0.0
2016-May-28 20:24N 48°37' W 123°09'0 0.0
2016-May-28 19:30N 48°37' W 123°09'0 0.1
2016-May-28 18:33N 48°37' W 123°09'7 7.2
2016-May-28 17:33N 48°32' W 123°01'0 0.0
2016-May-28 16:34N 48°32' W 123°01'0 0.0
2016-May-28 15:33N 48°32' W 123°01'0 0.0
2016-May-28 14:33N 48°32' W 123°01'0 0.0
2016-May-28 13:34N 48°32' W 123°01'0 0.0
2016-May-28 12:34N 48°32' W 123°01'0 0.0
2016-May-28 11:34N 48°32' W 123°01'0 0.0
2016-May-28 10:34N 48°32' W 123°01'0 0.0
2016-May-28 09:33N 48°32' W 123°01'0 0.0
2016-May-28 08:33N 48°32' W 123°01'0 0.0
2016-May-28 07:33N 48°32' W 123°01'0 0.0
2016-May-28 06:33N 48°32' W 123°01'0 0.0
2016-May-28 05:34N 48°32' W 123°01'0 0.0
2016-May-28 04:33N 48°32' W 123°01'0 0.0
2016-May-28 03:34N 48°32' W 123°01'0 0.0
2016-May-28 02:33N 48°32' W 123°01'0 0.0
2016-May-28 01:34N 48°32' W 123°01'0 0.0
2016-May-28 00:34N 48°32' W 123°01'0 0.0
2016-May-27 23:33N 48°32' W 123°01'0 0.0
2016-May-27 22:33N 48°32' W 123°01'0 0.0
2016-May-27 21:34N 48°32' W 123°01'0 0.0
2016-May-27 20:33N 48°32' W 123°01'0 0.0
2016-May-27 19:33N 48°32' W 123°01'0 0.0
2016-May-27 18:33N 48°32' W 123°01'0 0.0
2016-May-27 17:34N 48°32' W 123°01'0 0.0
2016-May-27 16:33N 48°32' W 123°01'0 0.0
2016-May-27 15:33N 48°32' W 123°01'0 0.0
2016-May-27 14:33N 48°32' W 123°01'0 0.0
2016-May-27 13:33N 48°32' W 123°01'0 0.0
2016-May-27 12:33N 48°32' W 123°01'0 0.0
2016-May-27 11:33N 48°32' W 123°01'0 0.0
2016-May-27 10:34N 48°32' W 123°01'0 0.0
2016-May-27 09:33N 48°32' W 123°01'0 0.0
2016-May-27 08:34N 48°32' W 123°01'0 0.0
2016-May-27 07:34N 48°32' W 123°01'0 0.0
2016-May-27 06:33N 48°32' W 123°01'0 0.0
2016-May-27 05:34N 48°32' W 123°01'0 0.0
2016-May-27 04:34N 48°32' W 123°01'0 0.0
2016-May-27 03:33N 48°32' W 123°01'0 0.0
2016-May-27 02:34N 48°32' W 123°01'0 0.0
2016-May-27 01:34N 48°32' W 123°01'0 0.0
2016-May-27 00:33N 48°32' W 123°01'0 0.0
2016-May-26 23:33N 48°32' W 123°01'0 0.0
2016-May-26 22:34N 48°32' W 123°01'0 0.4
2016-May-26 21:33N 48°33' W 123°01'9 9.1
2016-May-26 20:33N 48°38' W 123°11'1110.6
2016-May-26 19:33N 48°28' W 123°06'4214.1
2016-May-26 16:34N 47°54' W 122°29'  
Track history (hours):
 
Tides and Currents Weather Stations Pressure Air Temp Water Temp Dewpoint Dewpoint Depression Visibility Wind Speed Wind Dir Waves Ship Positions

Mary Alice II

Owner: Lakeshore Drive Investment, Rollins, MT. More information available from US FCC via Universal Licensing System and Coast Guard Vessel Documentation Center.

Last reported at 2016-Jun-05 16:33 UTC. Time now 2016-Jul-23 15:04 UTC.
Position N 52°15' W 128°18'.
Warning: this ship's position is 47 days out of date.

Length 40 m; draft 2.2 m.

Type: Pleasure craft. MMSI: 367344710.

Date/timePositionNaut miles runAvg speedWind from/ knotsBaromVisibWave heightAir tempDewpointWater temp
2016-Jun-05 16:33N 52°15' W 128°18'10 9.9
2016-Jun-05 15:33N 52°09' W 128°05'0 0.2
2016-Jun-05 14:33N 52°09' W 128°05'0 0.0
2016-Jun-05 13:30N 52°09' W 128°05'0 0.0
2016-Jun-05 12:30N 52°09' W 128°05'0 0.0
2016-Jun-05 11:30N 52°09' W 128°05'0 0.0
2016-Jun-05 10:33N 52°09' W 128°05'0 0.0
2016-Jun-05 09:30N 52°09' W 128°05'0 0.0
2016-Jun-05 08:30N 52°09' W 128°05'0 0.0
2016-Jun-05 07:33N 52°09' W 128°05'0 0.0
2016-Jun-05 06:33N 52°09' W 128°05'0 0.0
2016-Jun-05 05:33N 52°09' W 128°05'0 0.0
2016-Jun-05 04:30N 52°09' W 128°05'0 0.0
2016-Jun-05 03:33N 52°09' W 128°05'0 0.0
2016-Jun-05 02:33N 52°09' W 128°05'0 0.0
2016-Jun-05 01:27N 52°09' W 128°05'1 1.2
2016-Jun-05 00:33N 52°10' W 128°06'10 9.8
2016-Jun-04 23:33N 52°02' W 127°56'3214.6
2016-Jun-04 21:23N 51°31' W 127°51'1910.2
2016-Jun-04 19:33N 51°12' W 127°51'1414.4
2016-Jun-04 18:33N 50°58' W 127°44'1313.0
2016-Jun-04 17:33N 50°50' W 127°28'21 1.1
2016-Jun-03 23:20N 50°36' W 127°05'6513.2
2016-Jun-03 18:26N 50°20' W 125°26'1010.7
2016-Jun-03 17:33N 50°11' W 125°21'9 8.5
2016-Jun-03 16:30N 50°04' W 125°14'0 0.0
2016-Jun-03 15:23N 50°04' W 125°14'0 0.0
2016-Jun-03 14:30N 50°04' W 125°14'0 0.0
2016-Jun-03 13:30N 50°04' W 125°14'0 0.0
2016-Jun-03 12:33N 50°04' W 125°14'0 0.0
2016-Jun-03 11:29N 50°04' W 125°14'0 0.0
2016-Jun-03 10:29N 50°04' W 125°14'0 0.0
2016-Jun-03 09:32N 50°04' W 125°14'0 0.0
2016-Jun-03 08:32N 50°04' W 125°14'0 0.0
2016-Jun-03 07:32N 50°04' W 125°14'0 0.0
2016-Jun-03 06:33N 50°04' W 125°14'0 0.0
2016-Jun-03 05:32N 50°04' W 125°14'0 0.0
2016-Jun-03 04:32N 50°04' W 125°14'0 0.0
2016-Jun-03 03:33N 50°04' W 125°14'0 0.0
2016-Jun-03 02:33N 50°04' W 125°14'0 0.0
2016-Jun-03 01:32N 50°04' W 125°14'0 0.0
2016-Jun-03 00:32N 50°04' W 125°14'0 0.0
2016-Jun-02 23:32N 50°04' W 125°14'0 0.0
2016-Jun-02 22:33N 50°04' W 125°14'2 1.7
2016-Jun-02 21:34N 50°02' W 125°14'1212.1
2016-Jun-02 20:33N 49°53' W 125°02'1414.0
2016-Jun-02 19:33N 49°42' W 124°48'1413.6
2016-Jun-02 18:33N 49°34' W 124°30'1313.0
2016-Jun-02 17:33N 49°24' W 124°18'1313.4
2016-Jun-02 16:33N 49°17' W 124°01'7 3.7
2016-Jun-02 14:32N 49°10' W 123°56'0 0.0
2016-Jun-02 13:23N 49°10' W 123°56'0 0.0
2016-Jun-02 04:32N 49°10' W 123°56'0 0.0
2016-Jun-02 03:32N 49°10' W 123°56'0 0.0
2016-Jun-02 02:32N 49°10' W 123°56'0 0.0
2016-Jun-02 01:32N 49°10' W 123°56'0 0.0
2016-Jun-02 00:32N 49°10' W 123°56'0 0.0
2016-Jun-01 23:26N 49°10' W 123°56'0 0.0
2016-Jun-01 22:29N 49°10' W 123°56'0 0.0
2016-Jun-01 21:33N 49°10' W 123°56'8 8.4
2016-Jun-01 20:34N 49°14' W 123°44'1413.6
2016-Jun-01 19:33N 49°03' W 123°31'1313.2
2016-Jun-01 18:33N 48°56' W 123°14'1312.6
2016-Jun-01 17:33N 48°47' W 123°01'1111.4
2016-Jun-01 16:34N 48°40' W 123°14'5 4.5
2016-Jun-01 15:30N 48°37' W 123°09'0 0.0
2016-Jun-01 14:12N 48°37' W 123°09'0 0.0
2016-Jun-01 13:30N 48°37' W 123°09'0 0.0
2016-Jun-01 12:30N 48°37' W 123°09'0 0.0
2016-Jun-01 11:12N 48°37' W 123°09'0 0.0
2016-Jun-01 06:09N 48°37' W 123°09'0 0.0
2016-Jun-01 05:27N 48°37' W 123°09'0 0.0
2016-Jun-01 04:33N 48°37' W 123°09'0 0.0
2016-Jun-01 03:15N 48°37' W 123°09'0 0.0
2016-Jun-01 02:27N 48°37' W 123°09'0 0.0
2016-Jun-01 01:33N 48°37' W 123°09'0 0.0
2016-May-31 23:33N 48°37' W 123°09'0 0.0
2016-May-31 22:24N 48°37' W 123°09'0 0.0
2016-May-31 20:15N 48°37' W 123°09'0 0.0
2016-May-31 19:30N 48°37' W 123°09'0 0.0
2016-May-31 18:30N 48°37' W 123°09'0 0.0
2016-May-31 17:27N 48°37' W 123°09'0 0.0
2016-May-31 16:30N 48°37' W 123°09'0 0.0
2016-May-31 15:27N 48°37' W 123°09'0 0.0
2016-May-31 14:03N 48°37' W 123°09'0 0.0
2016-May-31 13:30N 48°37' W 123°09'0 0.0
2016-May-31 12:30N 48°37' W 123°09'0 0.0
2016-May-31 11:30N 48°37' W 123°09'0 0.0
2016-May-31 08:21N 48°37' W 123°09'0 0.0
2016-May-31 04:06N 48°37' W 123°09'0 0.0
2016-May-31 02:30N 48°37' W 123°09'0 0.0
2016-May-31 00:06N 48°37' W 123°09'0 0.0
2016-May-30 23:30N 48°37' W 123°09'0 0.0
2016-May-30 22:30N 48°37' W 123°09'0 0.0
2016-May-30 21:12N 48°37' W 123°09'0 0.0
2016-May-30 18:18N 48°37' W 123°09'0 0.0
2016-May-30 17:24N 48°37' W 123°09'0 0.0
2016-May-30 16:18N 48°37' W 123°09'0 0.0
2016-May-30 15:24N 48°37' W 123°09'0 0.0
2016-May-30 14:24N 48°37' W 123°09'0 0.0
2016-May-30 13:18N 48°37' W 123°09'0 0.0
2016-May-30 12:24N 48°37' W 123°09'0 0.0
2016-May-30 11:24N 48°37' W 123°09'0 0.0
2016-May-30 10:12N 48°37' W 123°09'0 0.0
2016-May-30 09:30N 48°37' W 123°09'0 0.0
2016-May-30 04:30N 48°37' W 123°09'0 0.0
2016-May-30 02:30N 48°37' W 123°09'0 0.0
2016-May-29 17:30N 48°37' W 123°09'0 0.0
2016-May-29 16:12N 48°37' W 123°09'0 0.0
2016-May-29 15:24N 48°37' W 123°09'0 0.0
2016-May-29 11:25N 48°37' W 123°09'0 0.0
2016-May-29 03:12N 48°37' W 123°09'0 0.0
2016-May-29 02:30N 48°37' W 123°09'0 0.0
2016-May-29 01:24N 48°37' W 123°09'0 0.0
2016-May-29 00:30N 48°37' W 123°09'0 0.0
2016-May-28 23:30N 48°37' W 123°09'0 0.0
2016-May-28 22:24N 48°37' W 123°09'0 0.0
2016-May-28 21:30N 48°37' W 123°09'0 0.0
2016-May-28 20:24N 48°37' W 123°09'0 0.0
2016-May-28 19:30N 48°37' W 123°09'0 0.1
2016-May-28 18:33N 48°37' W 123°09'7 7.2
2016-May-28 17:33N 48°32' W 123°01'0 0.0
2016-May-28 16:34N 48°32' W 123°01'0 0.0
2016-May-28 15:33N 48°32' W 123°01'0 0.0
2016-May-28 14:33N 48°32' W 123°01'0 0.0
2016-May-28 13:34N 48°32' W 123°01'0 0.0
2016-May-28 12:34N 48°32' W 123°01'0 0.0
2016-May-28 11:34N 48°32' W 123°01'0 0.0
2016-May-28 10:34N 48°32' W 123°01'0 0.0
2016-May-28 09:33N 48°32' W 123°01'0 0.0
2016-May-28 08:33N 48°32' W 123°01'0 0.0
2016-May-28 07:33N 48°32' W 123°01'0 0.0
2016-May-28 06:33N 48°32' W 123°01'0 0.0
2016-May-28 05:34N 48°32' W 123°01'0 0.0
2016-May-28 04:33N 48°32' W 123°01'0 0.0
2016-May-28 03:34N 48°32' W 123°01'0 0.0
2016-May-28 02:33N 48°32' W 123°01'0 0.0
2016-May-28 01:34N 48°32' W 123°01'0 0.0
2016-May-28 00:34N 48°32' W 123°01'0 0.0
2016-May-27 23:33N 48°32' W 123°01'0 0.0
2016-May-27 22:33N 48°32' W 123°01'0 0.0
2016-May-27 21:34N 48°32' W 123°01'0 0.0
2016-May-27 20:33N 48°32' W 123°01'0 0.0
2016-May-27 19:33N 48°32' W 123°01'0 0.0
2016-May-27 18:33N 48°32' W 123°01'0 0.0
2016-May-27 17:34N 48°32' W 123°01'0 0.0
2016-May-27 16:33N 48°32' W 123°01'0 0.0
2016-May-27 15:33N 48°32' W 123°01'0 0.0
2016-May-27 14:33N 48°32' W 123°01'0 0.0
2016-May-27 13:33N 48°32' W 123°01'0 0.0
2016-May-27 12:33N 48°32' W 123°01'0 0.0
2016-May-27 11:33N 48°32' W 123°01'0 0.0
2016-May-27 10:34N 48°32' W 123°01'0 0.0
2016-May-27 09:33N 48°32' W 123°01'0 0.0
2016-May-27 08:34N 48°32' W 123°01'0 0.0
2016-May-27 07:34N 48°32' W 123°01'0 0.0
2016-May-27 06:33N 48°32' W 123°01'0 0.0
2016-May-27 05:34N 48°32' W 123°01'0 0.0
2016-May-27 04:34N 48°32' W 123°01'0 0.0
2016-May-27 03:33N 48°32' W 123°01'0 0.0
2016-May-27 02:34N 48°32' W 123°01'0 0.0
2016-May-27 01:34N 48°32' W 123°01'0 0.0
2016-May-27 00:33N 48°32' W 123°01'0 0.0
2016-May-26 23:33N 48°32' W 123°01'0 0.0
2016-May-26 22:34N 48°32' W 123°01'0 0.4
2016-May-26 21:33N 48°33' W 123°01'9 9.1
2016-May-26 20:33N 48°38' W 123°11'1110.6
2016-May-26 19:33N 48°28' W 123°06'4214.1
2016-May-26 16:34N 47°54' W 122°29'  

Dump ship's entire track history